Time;durP1;ratioP1;P1;durP2;ratioP2;P2;SDS_P1;SDS_P2;PMS_P1;PMS_P2;Temp;Humidity;BMP_temperature;BMP_pressure;BME280_temperature;BME280_humidity;BME280_pressure;Samples;Min_cycle;Max_cycle;Signal;HPM_P1;HPM_P2
2020/12/05 00:02:08;;;;;;;1.10;1.10;;;5.30;99.90;;;;;;4954807;28;20218;-77
2020/12/05 00:04:33;;;;;;;0.10;0.10;;;5.40;99.90;;;;;;4954811;28;20170;-74
2020/12/05 00:06:59;;;;;;;0.28;0.28;;;5.50;99.90;;;;;;4954867;28;20221;-74
2020/12/05 00:09:24;;;;;;;0.73;0.73;;;5.60;99.90;;;;;;4954845;28;20515;-73
2020/12/05 00:11:50;;;;;;;2.05;0.52;;;5.60;99.90;;;;;;4954670;28;20654;-75
2020/12/05 00:14:15;;;;;;;0.60;0.60;;;5.30;99.90;;;;;;4954726;28;20202;-77
2020/12/05 00:16:41;;;;;;;0.77;0.77;;;5.40;99.90;;;;;;4954850;28;20202;-77
2020/12/05 00:19:06;;;;;;;0.20;0.20;;;5.30;99.90;;;;;;4954913;28;20695;-76
2020/12/05 00:21:32;;;;;;;0.30;0.30;;;5.40;99.90;;;;;;4954636;28;20191;-76
2020/12/05 00:23:59;;;;;;;0.20;0.20;;;5.30;99.90;;;;;;4954829;28;20545;-77
2020/12/05 00:26:25;;;;;;;0.70;0.70;;;5.30;99.90;;;;;;4954800;28;20592;-73
2020/12/05 00:28:51;;;;;;;0.40;0.40;;;5.20;99.90;;;;;;4954925;28;20626;-76
2020/12/05 00:31:20;;;;;;;0.20;0.20;;;5.20;99.90;;;;;;4954898;28;20277;-76
2020/12/05 00:33:46;;;;;;;0.17;0.17;;;5.00;99.90;;;;;;4954073;28;20221;-73
2020/12/05 00:36:15;;;;;;;0.20;0.20;;;5.10;99.90;;;;;;4958314;28;20167;-75
2020/12/05 00:38:41;;;;;;;0.70;0.70;;;5.10;99.90;;;;;;4958243;28;20203;-74
2020/12/05 00:41:07;;;;;;;0.20;0.20;;;5.20;99.90;;;;;;4958238;28;20221;-75
2020/12/05 00:43:34;;;;;;;0.40;0.40;;;5.30;99.90;;;;;;4958249;28;20213;-75
2020/12/05 00:46:04;;;;;;;0.57;0.45;;;5.10;99.90;;;;;;4958191;28;20170;-75
2020/12/05 00:48:31;;;;;;;1.40;0.90;;;5.10;99.90;;;;;;4956897;28;20170;-75
2020/12/05 00:50:57;;;;;;;1.10;1.10;;;5.20;99.90;;;;;;4956687;28;20670;-75
2020/12/05 00:53:23;;;;;;;0.68;0.68;;;5.10;99.90;;;;;;4957933;29;20265;-75
2020/12/05 00:55:49;;;;;;;8.98;1.20;;;4.90;99.90;;;;;;4958384;28;20201;-73
2020/12/05 00:58:14;;;;;;;0.20;0.20;;;4.90;99.90;;;;;;4958077;28;20174;-77
2020/12/05 01:00:41;;;;;;;1.48;0.63;;;4.90;99.90;;;;;;4958091;28;20179;-74
2020/12/05 01:03:06;;;;;;;0.80;0.70;;;5.10;99.90;;;;;;4957793;28;20190;-76
2020/12/05 01:05:35;;;;;;;0.20;0.20;;;5.30;99.90;;;;;;4957901;28;20197;-76
2020/12/05 01:08:01;;;;;;;0.50;0.50;;;5.20;99.90;;;;;;4957818;28;20252;-75
2020/12/05 01:10:27;;;;;;;0.52;0.30;;;5.20;99.90;;;;;;4957822;28;20640;-75
2020/12/05 01:12:52;;;;;;;0.30;0.30;;;5.30;99.90;;;;;;4957632;28;20206;-77
2020/12/05 01:15:19;;;;;;;0.20;0.20;;;5.30;99.90;;;;;;4957716;28;20178;-75
2020/12/05 01:17:44;;;;;;;0.73;0.73;;;5.30;99.90;;;;;;4957684;28;20282;-75
2020/12/05 01:20:10;;;;;;;0.20;0.20;;;5.50;99.90;;;;;;4957704;28;20257;-75
2020/12/05 01:22:35;;;;;;;0.20;0.20;;;5.60;99.90;;;;;;4957553;28;20190;-75
2020/12/05 01:25:01;;;;;;;0.20;0.20;;;5.60;99.90;;;;;;4957616;28;20526;-74
2020/12/05 01:27:27;;;;;;;0.20;0.20;;;5.80;99.90;;;;;;4956045;28;20223;-76
2020/12/05 01:29:52;;;;;;;0.22;0.22;;;5.70;99.90;;;;;;4957484;28;20198;-76
2020/12/05 01:32:18;;;;;;;0.20;0.20;;;5.60;99.90;;;;;;4957428;28;20234;-75
2020/12/05 01:34:43;;;;;;;0.52;0.52;;;5.70;99.90;;;;;;4957284;28;20206;-76
2020/12/05 01:37:09;;;;;;;1.17;0.95;;;5.50;99.90;;;;;;4957348;28;20174;-74
2020/12/05 01:39:35;;;;;;;0.20;0.20;;;5.70;99.90;;;;;;4957221;28;20197;-75
2020/12/05 01:42:01;;;;;;;1.10;1.10;;;5.90;99.90;;;;;;4957174;28;20186;-75
2020/12/05 01:44:26;;;;;;;0.20;0.20;;;6.00;99.90;;;;;;4957262;28;20170;-75
2020/12/05 01:46:52;;;;;;;0.10;0.10;;;6.10;99.90;;;;;;4957025;28;20178;-73
2020/12/05 01:49:20;;;;;;;3.92;1.05;;;6.00;99.90;;;;;;4957428;28;20155;-77
2020/12/05 01:51:46;;;;;;;0.63;0.63;;;6.10;99.90;;;;;;4956933;28;20195;-76
2020/12/05 01:54:13;;;;;;;0.47;0.47;;;6.20;99.90;;;;;;4956927;28;20318;-76
2020/12/05 01:56:42;;;;;;;0.30;0.30;;;6.20;99.90;;;;;;4957386;28;20171;-74
2020/12/05 01:59:08;;;;;;;0.20;0.20;;;6.30;99.90;;;;;;4956976;28;20573;-77
2020/12/05 02:01:34;;;;;;;0.10;0.10;;;6.60;99.90;;;;;;4956951;28;20214;-75
2020/12/05 02:04:01;;;;;;;0.17;0.17;;;6.50;99.90;;;;;;4956976;28;20179;-75
2020/12/05 02:07:19;;;;;;;0.77;0.77;;;6.60;99.90;;;;;;4957043;28;20166;-77
2020/12/05 02:09:49;;;;;;;1.20;0.50;;;6.50;99.90;;;;;;4955695;28;20190;-75
2020/12/05 02:12:23;;;;;;;1.65;1.15;;;6.60;99.90;;;;;;4956696;28;20575;-76
2020/12/05 02:14:54;;;;;;;0.20;0.20;;;6.30;99.90;;;;;;4956615;28;20182;-75
2020/12/05 02:17:21;;;;;;;0.55;0.55;;;6.30;99.90;;;;;;4955298;29;20956;-75
2020/12/05 02:19:50;;;;;;;0.20;0.20;;;6.30;99.90;;;;;;4956548;28;20163;-74
2020/12/05 02:22:21;;;;;;;0.20;0.20;;;6.30;99.90;;;;;;4956435;28;20183;-75
2020/12/05 02:24:48;;;;;;;0.10;0.10;;;6.40;99.90;;;;;;4956560;28;20170;-76
2020/12/05 02:27:15;;;;;;;0.50;0.50;;;6.50;99.90;;;;;;4956219;28;20427;-76
2020/12/05 02:29:40;;;;;;;0.52;0.52;;;6.60;99.90;;;;;;4956345;28;20870;-74
2020/12/05 02:32:06;;;;;;;0.10;0.10;;;6.70;99.90;;;;;;4956328;28;20241;-75
2020/12/05 02:34:34;;;;;;;0.50;0.50;;;6.80;99.90;;;;;;4956133;28;20249;-76
2020/12/05 02:37:06;;;;;;;2.17;0.40;;;6.70;99.90;;;;;;4956264;28;20175;-76
2020/12/05 02:39:32;;;;;;;0.30;0.30;;;6.60;99.90;;;;;;4956125;28;20162;-75
2020/12/05 02:41:58;;;;;;;0.70;0.68;;;6.50;99.90;;;;;;4955994;28;20666;-75
2020/12/05 02:44:24;;;;;;;5.28;0.75;;;6.50;99.90;;;;;;4956044;28;20171;-76
2020/12/05 02:46:52;;;;;;;0.20;0.20;;;6.40;99.90;;;;;;4955951;28;20717;-76
2020/12/05 02:49:17;;;;;;;0.20;0.20;;;6.40;99.90;;;;;;4956111;28;20163;-74
2020/12/05 02:51:43;;;;;;;0.28;0.28;;;6.40;99.90;;;;;;4955742;28;20197;-74
2020/12/05 02:54:08;;;;;;;0.20;0.20;;;6.40;99.90;;;;;;4955883;28;20206;-74
2020/12/05 02:56:34;;;;;;;0.30;0.30;;;6.30;99.90;;;;;;4955683;28;20634;-75
2020/12/05 02:59:00;;;;;;;0.40;0.40;;;6.60;99.90;;;;;;4955781;29;20209;-76
2020/12/05 03:01:25;;;;;;;0.20;0.20;;;6.70;99.90;;;;;;4955731;28;20549;-76
2020/12/05 03:03:51;;;;;;;0.15;0.15;;;6.70;99.90;;;;;;4955690;28;20289;-76
2020/12/05 03:06:17;;;;;;;0.40;0.40;;;6.70;99.90;;;;;;4955713;28;20194;-76
2020/12/05 03:08:43;;;;;;;0.10;0.10;;;6.80;99.90;;;;;;4955669;28;20167;-76
2020/12/05 03:11:08;;;;;;;0.28;0.28;;;6.70;99.90;;;;;;4955607;28;20684;-75
2020/12/05 03:13:34;;;;;;;0.20;0.20;;;6.70;99.90;;;;;;4955569;28;20760;-76
2020/12/05 03:15:59;;;;;;;0.77;0.77;;;6.60;99.90;;;;;;4955595;28;20167;-75
2020/12/05 03:18:25;;;;;;;1.00;1.00;;;6.60;99.90;;;;;;4954213;28;20217;-75
2020/12/05 03:20:51;;;;;;;0.20;0.20;;;6.70;99.90;;;;;;4954192;29;20170;-76
2020/12/05 03:23:16;;;;;;;0.77;0.77;;;6.60;99.90;;;;;;4955411;28;20585;-76
2020/12/05 03:25:42;;;;;;;0.20;0.20;;;6.60;99.90;;;;;;4955436;28;20186;-75
2020/12/05 03:28:07;;;;;;;1.25;1.15;;;6.70;99.90;;;;;;4955412;28;20242;-75
2020/12/05 03:30:33;;;;;;;0.20;0.20;;;6.70;99.90;;;;;;4955247;28;20205;-75
2020/12/05 03:32:59;;;;;;;1.65;0.95;;;6.50;99.90;;;;;;4955476;28;20206;-75
2020/12/05 03:35:26;;;;;;;0.32;0.32;;;6.60;99.90;;;;;;4955321;28;20159;-76
2020/12/05 03:37:52;;;;;;;0.20;0.20;;;6.50;99.90;;;;;;4955287;28;20238;-76
2020/12/05 03:40:18;;;;;;;0.20;0.20;;;6.60;99.90;;;;;;4955200;28;20179;-75
2020/12/05 03:42:44;;;;;;;0.20;0.20;;;6.40;99.90;;;;;;4955153;28;20193;-75
2020/12/05 03:45:09;;;;;;;0.20;0.20;;;6.40;99.90;;;;;;4955167;28;20167;-75
2020/12/05 03:47:35;;;;;;;0.30;0.30;;;6.30;99.90;;;;;;4955145;28;20182;-77
2020/12/05 03:50:03;;;;;;;0.30;0.30;;;6.20;99.90;;;;;;4955063;28;20179;-75
2020/12/05 03:52:29;;;;;;;0.20;0.20;;;6.30;99.90;;;;;;4954959;28;20257;-75
2020/12/05 03:54:55;;;;;;;1.33;0.25;;;6.40;99.90;;;;;;4955084;28;20239;-74
2020/12/05 03:57:21;;;;;;;0.30;0.30;;;6.30;99.90;;;;;;4954990;28;20202;-74
2020/12/05 03:59:47;;;;;;;0.30;0.30;;;6.40;99.90;;;;;;4955054;28;20221;-74
2020/12/05 04:02:13;;;;;;;0.30;0.30;;;6.50;99.90;;;;;;4954886;29;20269;-74
2020/12/05 04:04:38;;;;;;;0.32;0.32;;;6.20;99.90;;;;;;4953699;29;20222;-74
2020/12/05 04:07:04;;;;;;;0.60;0.60;;;6.20;99.90;;;;;;4954940;28;20167;-74
2020/12/05 04:09:29;;;;;;;0.30;0.30;;;6.20;99.90;;;;;;4956904;28;20190;-75
2020/12/05 04:11:55;;;;;;;0.32;0.32;;;6.20;99.90;;;;;;4958770;28;20222;-75
2020/12/05 04:14:21;;;;;;;0.22;0.22;;;6.20;99.90;;;;;;4958760;28;20210;-74
2020/12/05 04:16:46;;;;;;;0.20;0.20;;;6.10;99.90;;;;;;4959149;28;20233;-75
2020/12/05 04:19:12;;;;;;;3.90;1.08;;;6.10;99.90;;;;;;4958644;28;20165;-75
2020/12/05 04:21:37;;;;;;;0.68;0.68;;;6.30;99.90;;;;;;4958621;28;20183;-75
2020/12/05 04:24:03;;;;;;;0.80;0.80;;;6.40;99.90;;;;;;4958656;28;20175;-76
2020/12/05 04:26:28;;;;;;;0.63;0.63;;;6.50;99.90;;;;;;4957299;29;20230;-76
2020/12/05 04:28:54;;;;;;;0.28;0.28;;;6.50;99.90;;;;;;4958553;28;20190;-75
2020/12/05 04:31:20;;;;;;;0.73;0.73;;;6.60;99.90;;;;;;4958572;28;20650;-74
2020/12/05 04:33:45;;;;;;;0.65;0.65;;;6.50;99.90;;;;;;4958250;28;20692;-75
2020/12/05 04:36:11;;;;;;;1.02;0.95;;;6.70;99.90;;;;;;4958379;28;20158;-76
2020/12/05 04:38:37;;;;;;;0.47;0.47;;;6.70;99.90;;;;;;4958250;28;20559;-76
2020/12/05 04:41:03;;;;;;;0.70;0.70;;;6.70;99.90;;;;;;4958228;28;20242;-76
2020/12/05 04:43:29;;;;;;;0.57;0.57;;;6.70;99.90;;;;;;4958573;28;20531;-77
2020/12/05 04:45:56;;;;;;;1.90;1.48;;;6.50;99.90;;;;;;4958250;28;20155;-76
2020/12/05 04:48:24;;;;;;;0.88;0.68;;;6.60;99.90;;;;;;4958208;28;20171;-76
2020/12/05 04:50:53;;;;;;;0.30;0.30;;;6.50;99.90;;;;;;4957919;28;20174;-75
2020/12/05 04:53:20;;;;;;;0.50;0.50;;;6.50;99.90;;;;;;4958073;28;20206;-77
2020/12/05 04:55:46;;;;;;;0.80;0.80;;;6.70;99.90;;;;;;4958280;28;20527;-76
2020/12/05 04:58:19;;;;;;;0.80;0.57;;;6.80;99.90;;;;;;4957904;28;20177;-76
2020/12/05 05:00:46;;;;;;;0.28;0.28;;;6.80;99.90;;;;;;4957983;28;20518;-73
2020/12/05 05:03:18;;;;;;;0.20;0.20;;;6.80;99.90;;;;;;4957758;28;20217;-75
2020/12/05 05:05:44;;;;;;;0.30;0.30;;;6.90;99.90;;;;;;4957927;28;20538;-73
2020/12/05 05:08:12;;;;;;;0.57;0.57;;;6.60;99.90;;;;;;4957786;28;20166;-73
2020/12/05 05:10:38;;;;;;;0.25;0.25;;;6.80;99.90;;;;;;4957829;28;20169;-75
2020/12/05 05:13:12;;;;;;;0.17;0.13;;;6.70;99.90;;;;;;4957623;28;20211;-74
2020/12/05 05:15:38;;;;;;;0.40;0.40;;;6.80;99.90;;;;;;4957799;28;20159;-75
2020/12/05 05:18:04;;;;;;;0.82;0.45;;;6.70;99.90;;;;;;4957716;28;20222;-75
2020/12/05 05:20:54;;;;;;;1.15;0.98;;;6.50;99.90;;;;;;4957373;28;20542;-73
2020/12/05 05:23:20;;;;;;;0.20;0.20;;;6.50;99.90;;;;;;4957501;28;20257;-75
2020/12/05 05:26:03;;;;;;;1.00;1.00;;;6.50;99.90;;;;;;4957622;28;20225;-75
2020/12/05 05:28:34;;;;;;;1.45;1.08;;;6.50;99.90;;;;;;4957472;28;20299;-73
2020/12/05 05:32:11;;;;;;;1.27;1.02;;;6.40;99.90;;;;;;4957586;28;20174;-75
2020/12/05 05:34:03;;;;;;;0.20;0.20;;;6.10;99.90;;;;;;4956621;28;20264;-74
2020/12/05 05:36:29;;;;;;;0.20;0.20;;;6.00;99.90;;;;;;4957351;28;20626;-75
2020/12/05 05:39:09;;;;;;;0.63;0.55;;;5.90;99.90;;;;;;4957233;28;20186;-75
2020/12/05 05:41:39;;;;;;;0.55;0.55;;;5.90;99.90;;;;;;4957115;28;20211;-74
2020/12/05 05:44:10;;;;;;;0.20;0.20;;;5.90;99.90;;;;;;4957387;28;20174;-75
2020/12/05 05:46:44;;;;;;;0.20;0.20;;;5.90;99.90;;;;;;4957162;28;20237;-75
2020/12/05 05:49:12;;;;;;;0.30;0.30;;;5.90;99.90;;;;;;4957203;28;20155;-75
2020/12/05 05:51:42;;;;;;;0.20;0.20;;;6.00;99.90;;;;;;4955789;29;20662;-75
2020/12/05 05:54:12;;;;;;;0.30;0.30;;;5.80;99.90;;;;;;5013304;23;20700;-73
2020/12/05 05:56:38;;;;;;;0.95;0.95;;;5.70;99.90;;;;;;5015178;28;20214;-73
2020/12/05 05:59:05;;;;;;;0.20;0.20;;;5.80;99.90;;;;;;5013994;28;20619;-73
2020/12/05 06:01:36;;;;;;;0.20;0.20;;;5.70;99.90;;;;;;5015076;28;20727;-74
2020/12/05 06:04:04;;;;;;;0.20;0.20;;;5.60;99.90;;;;;;5015105;28;20180;-75
2020/12/05 06:06:32;;;;;;;0.60;0.60;;;5.80;99.90;;;;;;5015362;28;20167;-74
2020/12/05 06:09:03;;;;;;;3.88;1.38;;;5.80;99.90;;;;;;5014944;28;20160;-73
2020/12/05 06:11:33;;;;;;;0.73;0.73;;;5.60;99.90;;;;;;5014924;28;20185;-74
2020/12/05 06:14:01;;;;;;;0.30;0.30;;;5.60;99.90;;;;;;5014973;28;20291;-74
2020/12/05 06:16:27;;;;;;;0.43;0.43;;;5.60;99.90;;;;;;5015059;28;20160;-73
2020/12/05 06:18:56;;;;;;;0.20;0.20;;;5.50;99.90;;;;;;5014730;28;20164;-72
2020/12/05 06:21:30;;;;;;;0.20;0.20;;;5.60;99.90;;;;;;5014842;28;20331;-73
2020/12/05 06:24:03;;;;;;;0.25;0.25;;;5.60;99.90;;;;;;5014767;28;20658;-72
2020/12/05 06:26:31;;;;;;;0.20;0.20;;;5.60;99.90;;;;;;5014654;28;20238;-73
2020/12/05 06:29:00;;;;;;;14.82;2.47;;;5.70;99.90;;;;;;5014541;28;20157;-72
2020/12/05 06:31:45;;;;;;;0.45;0.45;;;5.60;99.90;;;;;;5013890;28;20599;-72
2020/12/05 06:34:32;;;;;;;1.17;1.08;;;5.50;99.90;;;;;;5014354;28;20200;-72
2020/12/05 06:36:58;;;;;;;0.40;0.40;;;5.30;99.90;;;;;;5014591;28;20183;-73
2020/12/05 06:39:24;;;;;;;0.20;0.20;;;5.00;99.90;;;;;;5014361;28;20168;-73
2020/12/05 06:41:52;;;;;;;0.43;0.43;;;5.20;99.90;;;;;;5014194;28;20267;-72
2020/12/05 06:44:23;;;;;;;0.20;0.20;;;5.20;99.90;;;;;;5014369;28;20171;-73
2020/12/05 06:47:03;;;;;;;0.20;0.20;;;5.30;99.90;;;;;;5014702;28;20169;-73
2020/12/05 06:49:38;;;;;;;0.20;0.20;;;5.30;99.90;;;;;;5014269;28;20149;-72
2020/12/05 06:52:24;;;;;;;0.77;0.77;;;5.30;99.90;;;;;;5014120;28;20183;-72
2020/12/05 06:55:17;;;;;;;0.47;0.47;;;5.40;99.90;;;;;;5014121;28;20222;-72
2020/12/05 06:57:43;;;;;;;0.20;0.20;;;5.50;99.90;;;;;;5013733;28;20189;-72
2020/12/05 07:00:25;;;;;;;0.40;0.40;;;5.50;99.90;;;;;;5014145;28;20167;-72
2020/12/05 07:03:03;;;;;;;0.30;0.30;;;5.60;99.90;;;;;;5014124;28;20655;-72
2020/12/05 07:05:37;;;;;;;0.20;0.20;;;5.40;99.90;;;;;;5014007;28;20157;-72
2020/12/05 07:08:26;;;;;;;0.30;0.30;;;5.20;99.90;;;;;;5013982;28;20176;-72
2020/12/05 07:11:18;;;;;;;0.25;0.25;;;5.20;99.90;;;;;;5013784;28;20160;-72
2020/12/05 07:13:48;;;;;;;0.40;0.40;;;5.10;99.90;;;;;;5013479;28;20224;-72
2020/12/05 07:16:22;;;;;;;0.20;0.20;;;5.20;99.90;;;;;;5013758;28;20153;-72
2020/12/05 07:18:50;;;;;;;0.17;0.17;;;5.40;99.90;;;;;;5013687;28;20177;-72
2020/12/05 07:21:17;;;;;;;0.20;0.20;;;5.40;99.90;;;;;;5013883;28;20517;-72
2020/12/05 07:23:43;;;;;;;0.20;0.20;;;5.40;99.90;;;;;;5013699;28;20763;-72
2020/12/05 07:26:09;;;;;;;1.50;1.40;;;5.30;99.90;;;;;;5013714;28;20169;-72
2020/12/05 07:28:35;;;;;;;0.43;0.43;;;5.30;99.90;;;;;;5013560;28;20176;-74
2020/12/05 07:31:02;;;;;;;0.30;0.30;;;5.20;99.90;;;;;;5013576;28;20164;-72
2020/12/05 07:33:28;;;;;;;0.43;0.43;;;5.20;99.90;;;;;;5013563;28;20295;-72
2020/12/05 07:36:05;;;;;;;0.15;0.15;;;5.10;99.90;;;;;;5013372;28;20240;-72
2020/12/05 07:38:32;;;;;;;0.47;0.47;;;5.10;99.90;;;;;;5013224;28;20156;-72
2020/12/05 07:40:59;;;;;;;0.20;0.20;;;5.20;99.90;;;;;;5012118;28;20168;-71
2020/12/05 07:43:25;;;;;;;0.15;0.15;;;5.30;99.90;;;;;;5013262;28;20214;-72
2020/12/05 07:45:52;;;;;;;1.10;1.10;;;5.20;99.90;;;;;;5013121;28;20164;-71
2020/12/05 07:48:20;;;;;;;10.73;1.65;;;5.20;99.90;;;;;;5013128;28;20168;-72
2020/12/05 07:50:47;;;;;;;0.15;0.15;;;5.30;99.90;;;;;;5013221;28;20569;-73
2020/12/05 07:53:22;;;;;;;0.40;0.40;;;5.40;99.90;;;;;;5012986;28;20231;-72
2020/12/05 07:55:48;;;;;;;0.25;0.25;;;5.40;99.90;;;;;;5013197;28;20255;-72
2020/12/05 07:58:14;;;;;;;1.35;0.50;;;5.50;99.90;;;;;;5014413;28;20579;-72
2020/12/05 08:00:40;;;;;;;0.30;0.30;;;5.40;99.90;;;;;;5013984;28;20176;-72
2020/12/05 08:03:24;;;;;;;0.40;0.40;;;5.50;99.90;;;;;;5013044;28;20644;-74
2020/12/05 08:06:07;;;;;;;0.30;0.30;;;5.60;99.90;;;;;;5013237;28;20156;-72
2020/12/05 08:08:35;;;;;;;0.20;0.20;;;5.40;99.90;;;;;;5013070;28;20176;-72
2020/12/05 08:11:03;;;;;;;0.38;0.38;;;5.40;99.90;;;;;;5013260;28;20168;-74
2020/12/05 08:13:30;;;;;;;0.20;0.20;;;5.70;99.90;;;;;;5013128;28;20230;-74
2020/12/05 08:15:56;;;;;;;0.22;0.22;;;5.70;99.90;;;;;;5013290;28;20175;-72
2020/12/05 08:18:25;;;;;;;0.63;0.63;;;5.90;99.90;;;;;;5012991;28;20180;-72
2020/12/05 08:20:51;;;;;;;0.20;0.20;;;5.80;99.90;;;;;;5012969;28;20160;-72
2020/12/05 08:23:31;;;;;;;11.65;0.52;;;6.00;99.90;;;;;;5013141;28;20643;-72
2020/12/05 08:26:08;;;;;;;0.93;0.93;;;6.10;99.90;;;;;;5012917;28;20157;-72
2020/12/05 08:28:46;;;;;;;0.28;0.28;;;6.20;99.90;;;;;;5012986;28;20172;-72
2020/12/05 08:31:13;;;;;;;0.20;0.20;;;6.40;99.90;;;;;;5012831;28;20196;-73
2020/12/05 08:33:43;;;;;;;0.20;0.20;;;6.30;99.90;;;;;;5012778;28;20557;-73
2020/12/05 08:36:20;;;;;;;0.20;0.20;;;6.20;99.90;;;;;;5011231;28;20226;-72
2020/12/05 08:38:47;;;;;;;10.23;1.42;;;6.10;99.90;;;;;;5012657;28;20508;-72
2020/12/05 08:41:13;;;;;;;0.45;0.45;;;6.20;99.90;;;;;;5012784;28;20519;-72
2020/12/05 08:43:39;;;;;;;0.20;0.20;;;6.50;99.90;;;;;;5012839;28;20172;-72
2020/12/05 08:46:22;;;;;;;0.20;0.20;;;6.40;99.90;;;;;;5012822;28;20168;-71
2020/12/05 08:48:48;;;;;;;0.80;0.80;;;6.50;99.90;;;;;;5012736;28;20264;-73
2020/12/05 08:51:15;;;;;;;2.28;0.65;;;6.40;99.90;;;;;;5012374;28;20194;-72
2020/12/05 08:53:41;;;;;;;0.75;0.75;;;6.20;99.90;;;;;;5012274;28;20703;-72
2020/12/05 08:56:06;;;;;;;0.20;0.20;;;6.30;99.90;;;;;;5015198;28;20161;-71
2020/12/05 08:58:43;;;;;;;0.28;0.28;;;6.40;99.90;;;;;;5031512;28;20276;-71
2020/12/05 09:01:08;;;;;;;2.45;0.95;;;6.40;99.90;;;;;;5016175;28;20199;-72
2020/12/05 09:03:37;;;;;;;0.47;0.47;;;6.50;99.90;;;;;;5016383;28;20164;-71
2020/12/05 09:06:02;;;;;;;0.55;0.55;;;6.50;99.90;;;;;;5016123;28;20168;-71
2020/12/05 09:08:28;;;;;;;0.30;0.30;;;6.40;99.90;;;;;;5013675;28;20180;-71
2020/12/05 09:10:53;;;;;;;0.20;0.20;;;6.30;99.90;;;;;;5015097;28;20179;-71
2020/12/05 09:13:19;;;;;;;0.20;0.20;;;6.50;99.90;;;;;;5015400;28;20180;-72
2020/12/05 09:15:57;;;;;;;3.50;0.68;;;6.60;99.90;;;;;;5016088;28;20172;-71
2020/12/05 09:18:22;;;;;;;0.20;0.20;;;6.60;99.90;;;;;;5015314;28;20694;-72
2020/12/05 09:20:48;;;;;;;0.22;0.22;;;6.70;99.90;;;;;;5013130;28;20203;-73
2020/12/05 09:23:13;;;;;;;0.85;0.52;;;6.80;99.90;;;;;;5015027;28;20696;-71
2020/12/05 09:25:40;;;;;;;0.22;0.22;;;6.80;99.90;;;;;;5013097;28;20593;-71
2020/12/05 09:28:11;;;;;;;0.20;0.20;;;6.80;99.90;;;;;;5015170;28;20164;-74
2020/12/05 09:30:37;;;;;;;0.20;0.20;;;6.50;99.90;;;;;;5015327;28;20171;-72
2020/12/05 09:33:10;;;;;;;0.30;0.30;;;6.20;99.90;;;;;;5015517;28;20216;-72
2020/12/05 09:35:36;;;;;;;0.20;0.20;;;6.20;99.90;;;;;;5015458;28;20275;-71
2020/12/05 09:38:02;;;;;;;0.20;0.20;;;6.30;99.90;;;;;;5014554;28;20173;-76
2020/12/05 09:40:29;;;;;;;0.10;0.10;;;6.40;99.90;;;;;;5014936;28;20193;-72
2020/12/05 09:42:55;;;;;;;0.40;0.40;;;6.50;99.90;;;;;;5014779;28;20192;-71
2020/12/05 09:45:21;;;;;;;2.72;1.48;;;6.60;99.90;;;;;;5014841;28;20247;-75
2020/12/05 09:47:46;;;;;;;0.20;0.20;;;6.60;99.90;;;;;;5014637;28;20251;-71
2020/12/05 09:50:14;;;;;;;0.50;0.50;;;6.50;99.90;;;;;;5015140;28;20271;-71
2020/12/05 09:52:40;;;;;;;1.48;1.13;;;6.60;99.90;;;;;;5014691;28;20226;-70
2020/12/05 09:55:06;;;;;;;0.38;0.38;;;6.70;99.90;;;;;;5012999;28;20200;-72
2020/12/05 09:57:33;;;;;;;1.05;0.85;;;6.70;99.90;;;;;;5010777;28;20179;-71
2020/12/05 09:59:59;;;;;;;0.30;0.30;;;6.60;99.90;;;;;;5014468;28;20645;-72
2020/12/05 10:02:24;;;;;;;0.55;0.55;;;6.50;99.90;;;;;;5013456;28;20208;-71
2020/12/05 10:04:50;;;;;;;0.20;0.20;;;6.50;99.90;;;;;;5014604;28;20176;-71
2020/12/05 10:07:16;;;;;;;0.95;0.95;;;6.70;99.90;;;;;;5013130;28;20161;-71
2020/12/05 10:09:41;;;;;;;0.10;0.10;;;6.70;99.90;;;;;;5013662;28;20168;-71
2020/12/05 10:12:07;;;;;;;0.40;0.40;;;6.60;99.90;;;;;;5014358;28;20656;-70
2020/12/05 10:14:33;;;;;;;0.38;0.38;;;6.50;99.90;;;;;;5011781;28;20570;-74
2020/12/05 10:16:58;;;;;;;1.35;1.17;;;6.50;99.90;;;;;;5006701;28;20222;-70
2020/12/05 10:19:24;;;;;;;0.20;0.20;;;6.50;99.90;;;;;;5012558;28;20157;-70
2020/12/05 10:21:51;;;;;;;0.30;0.30;;;6.50;99.90;;;;;;5012588;28;20271;-70
2020/12/05 10:24:18;;;;;;;0.30;0.30;;;6.60;99.90;;;;;;5013230;28;20172;-71
2020/12/05 10:26:53;;;;;;;0.52;0.52;;;6.60;99.90;;;;;;5013103;28;20164;-70
2020/12/05 10:29:23;;;;;;;0.10;0.10;;;6.80;99.90;;;;;;5012989;28;20152;-72
2020/12/05 10:31:50;;;;;;;0.20;0.20;;;6.90;99.90;;;;;;5013150;28;20686;-72
2020/12/05 10:34:17;;;;;;;0.35;0.35;;;6.90;99.90;;;;;;5012714;28;20249;-72
2020/12/05 10:36:43;;;;;;;1.02;0.47;;;6.80;99.90;;;;;;5008746;28;20175;-72
2020/12/05 10:39:10;;;;;;;0.10;0.10;;;6.80;99.90;;;;;;5010291;28;20230;-71
2020/12/05 10:41:36;;;;;;;0.20;0.20;;;6.80;99.90;;;;;;5012465;28;20193;-72
2020/12/05 10:44:06;;;;;;;0.30;0.30;;;6.70;99.90;;;;;;5012690;28;20511;-71
2020/12/05 10:46:32;;;;;;;0.10;0.10;;;7.10;99.90;;;;;;5012401;28;20175;-72
2020/12/05 10:48:58;;;;;;;0.50;0.50;;;7.30;99.90;;;;;;5012428;28;20620;-73
2020/12/05 10:51:24;;;;;;;0.13;0.13;;;7.40;99.90;;;;;;5012458;28;20601;-73
2020/12/05 10:53:50;;;;;;;0.20;0.20;;;7.60;99.90;;;;;;5012239;28;20224;-79
2020/12/05 10:56:15;;;;;;;0.50;0.50;;;7.80;99.90;;;;;;5010786;28;20177;-72
2020/12/05 10:58:41;;;;;;;0.20;0.20;;;7.70;99.90;;;;;;5012910;28;20644;-72
2020/12/05 11:01:07;;;;;;;0.60;0.60;;;7.70;99.90;;;;;;5012620;28;20227;-72
2020/12/05 11:03:32;;;;;;;0.20;0.20;;;7.70;99.90;;;;;;5012666;28;20172;-73
2020/12/05 11:05:58;;;;;;;0.30;0.30;;;7.60;99.90;;;;;;5012493;28;20607;-75
2020/12/05 11:08:23;;;;;;;2.35;2.15;;;7.60;99.90;;;;;;5010726;28;20172;-75
2020/12/05 11:10:49;;;;;;;0.20;0.20;;;7.60;99.90;;;;;;4996144;28;20177;-74
2020/12/05 11:13:15;;;;;;;0.32;0.32;;;7.80;99.90;;;;;;4993480;28;20196;-76
2020/12/05 11:15:40;;;;;;;0.30;0.30;;;7.90;99.90;;;;;;5003823;28;20180;-75
2020/12/05 11:18:07;;;;;;;0.20;0.20;;;7.90;99.90;;;;;;5011413;28;20180;-75
2020/12/05 11:20:32;;;;;;;0.20;0.20;;;8.00;99.90;;;;;;5013076;28;20509;-77
2020/12/05 11:22:58;;;;;;;0.10;0.10;;;7.90;99.90;;;;;;5013167;28;20192;-78
2020/12/05 11:25:24;;;;;;;0.28;0.28;;;7.80;99.90;;;;;;5013133;28;20167;-78
2020/12/05 11:27:49;;;;;;;2.47;0.43;;;7.80;99.90;;;;;;5012876;28;20612;-76
2020/12/05 11:30:15;;;;;;;0.20;0.20;;;7.70;99.90;;;;;;5012845;28;20184;-73
2020/12/05 11:32:40;;;;;;;1.75;0.45;;;7.70;99.90;;;;;;5012776;28;20188;-74
2020/12/05 11:35:06;;;;;;;0.85;0.77;;;7.70;99.90;;;;;;5012410;28;20214;-73
2020/12/05 11:37:32;;;;;;;0.65;0.65;;;7.40;99.90;;;;;;5013011;28;20215;-74
2020/12/05 11:39:58;;;;;;;0.40;0.40;;;7.60;99.90;;;;;;5012396;28;20243;-73
2020/12/05 11:42:27;;;;;;;0.25;0.25;;;7.80;99.90;;;;;;5012619;28;20743;-73
2020/12/05 11:44:53;;;;;;;0.20;0.20;;;7.80;99.90;;;;;;5012418;28;20242;-74
2020/12/05 11:47:19;;;;;;;0.10;0.10;;;7.60;99.90;;;;;;5012760;28;20172;-71
2020/12/05 11:49:44;;;;;;;0.30;0.30;;;7.60;99.90;;;;;;5011132;28;20164;-72
2020/12/05 11:52:10;;;;;;;0.20;0.20;;;7.70;99.90;;;;;;5012535;28;20532;-76
2020/12/05 11:54:35;;;;;;;0.20;0.20;;;7.70;99.90;;;;;;5010961;28;20255;-77
2020/12/05 11:57:01;;;;;;;0.63;0.45;;;7.90;99.90;;;;;;5011794;28;20168;-75
2020/12/05 12:01:52;;;;;;;0.38;0.38;;;8.20;99.90;;;;;;5011835;28;20548;-73
2020/12/05 12:04:17;;;;;;;0.20;0.20;;;8.00;99.90;;;;;;5013112;28;20200;-75
2020/12/05 12:06:43;;;;;;;0.30;0.30;;;7.90;99.90;;;;;;5013099;28;20253;-73
2020/12/05 12:09:09;;;;;;;0.30;0.30;;;8.10;99.90;;;;;;5013013;28;20161;-73
2020/12/05 12:11:35;;;;;;;0.25;0.25;;;8.30;99.90;;;;;;5012757;28;20203;-73
2020/12/05 12:14:00;;;;;;;1.10;1.02;;;8.40;99.90;;;;;;5011886;28;20212;-74
2020/12/05 12:16:26;;;;;;;0.20;0.20;;;8.30;99.90;;;;;;5012861;28;20161;-73
2020/12/05 12:18:53;;;;;;;0.30;0.30;;;8.30;99.90;;;;;;5013011;28;20161;-76
2020/12/05 12:21:25;;;;;;;2.28;1.15;;;8.00;99.90;;;;;;4981707;23;20241;-75
2020/12/05 12:23:53;;;;;;;0.10;0.10;;;8.20;99.90;;;;;;4953269;29;20182;-75
2020/12/05 12:26:19;;;;;;;0.30;0.30;;;8.20;99.90;;;;;;4954272;28;20214;-75
2020/12/05 12:28:45;;;;;;;0.20;0.20;;;8.20;99.90;;;;;;4954394;28;20167;-75
2020/12/05 12:31:11;;;;;;;0.30;0.30;;;8.10;99.90;;;;;;4957307;28;20193;-75
2020/12/05 12:33:38;;;;;;;0.40;0.40;;;7.90;99.90;;;;;;4958079;28;20646;-75
2020/12/05 12:36:04;;;;;;;1.10;0.60;;;7.80;99.90;;;;;;4958322;28;20284;-74
2020/12/05 12:38:30;;;;;;;6.18;0.98;;;7.80;99.90;;;;;;4958249;28;20171;-74
2020/12/05 12:40:55;;;;;;;0.55;0.55;;;7.90;99.90;;;;;;4957995;28;20181;-75
2020/12/05 12:43:21;;;;;;;0.20;0.20;;;8.30;99.90;;;;;;4958233;28;20519;-74
2020/12/05 12:45:47;;;;;;;0.55;0.55;;;8.30;99.90;;;;;;4958071;28;20173;-75
2020/12/05 12:50:40;;;;;;;0.73;0.73;;;8.10;99.90;;;;;;4957901;28;20254;-74
2020/12/05 12:53:05;;;;;;;0.20;0.20;;;8.10;99.90;;;;;;4957712;28;20195;-75
2020/12/05 12:55:31;;;;;;;1.02;1.02;;;8.10;99.90;;;;;;4957841;28;20166;-74
2020/12/05 12:58:25;;;;;;;0.10;0.10;;;8.10;99.90;;;;;;4957809;28;20174;-74
2020/12/05 13:00:51;;;;;;;0.20;0.20;;;8.10;99.90;;;;;;4957749;28;20244;-74
2020/12/05 13:03:16;;;;;;;0.20;0.20;;;8.10;99.90;;;;;;4957722;28;20661;-73
2020/12/05 13:05:42;;;;;;;0.20;0.20;;;8.00;99.90;;;;;;4957551;28;20295;-74
2020/12/05 13:08:08;;;;;;;0.10;0.10;;;7.90;99.90;;;;;;4957579;28;20170;-74